Time;durP1;ratioP1;P1;durP2;ratioP2;P2;SDS_P1;SDS_P2;PMS_P1;PMS_P2;Temp;Humidity;BMP_temperature;BMP_pressure;BME280_temperature;BME280_humidity;BME280_pressure;Samples;Min_cycle;Max_cycle;Signal;HPM_P1;HPM_P2
2022/03/22 00:00:49;;;;;;;18.23;13.00;;;12.60;50.90;;;;;;5054549;28;20468;-75
2022/03/22 00:03:15;;;;;;;15.03;12.07;;;12.60;50.80;;;;;;5053802;28;20669;-75
2022/03/22 00:05:42;;;;;;;16.43;12.67;;;12.60;50.80;;;;;;5055607;28;20437;-75
2022/03/22 00:08:09;;;;;;;21.10;12.50;;;12.60;50.70;;;;;;5053951;28;20445;-75
2022/03/22 00:10:36;;;;;;;16.90;11.90;;;12.70;50.90;;;;;;5053131;28;20490;-75
2022/03/22 00:13:04;;;;;;;19.97;13.33;;;12.60;50.90;;;;;;5053798;28;20464;-75
2022/03/22 00:15:30;;;;;;;18.00;12.90;;;12.70;51.20;;;;;;5049663;28;20552;-77
2022/03/22 00:17:55;;;;;;;16.50;13.10;;;12.60;50.90;;;;;;5053208;28;20571;-75
2022/03/22 00:20:21;;;;;;;20.00;13.13;;;12.50;51.00;;;;;;5053559;28;20434;-76
2022/03/22 00:22:48;;;;;;;17.17;13.90;;;12.50;51.20;;;;;;5052168;28;20202;-75
2022/03/22 00:25:16;;;;;;;15.47;12.20;;;12.30;51.30;;;;;;5054859;28;20222;-76
2022/03/22 00:27:55;;;;;;;17.30;12.57;;;12.30;51.70;;;;;;5056286;28;20494;-75
2022/03/22 00:30:35;;;;;;;19.30;13.33;;;12.30;51.60;;;;;;5055341;28;20433;-75
2022/03/22 00:33:03;;;;;;;16.97;13.10;;;12.20;51.60;;;;;;5049711;28;20469;-74
2022/03/22 00:35:36;;;;;;;19.23;12.77;;;12.20;51.90;;;;;;5055490;28;20453;-74
2022/03/22 00:38:03;;;;;;;15.00;12.40;;;11.90;51.50;;;;;;5055667;28;20429;-75
2022/03/22 00:40:29;;;;;;;16.97;12.50;;;11.90;52.20;;;;;;5054372;28;20805;-74
2022/03/22 00:42:56;;;;;;;16.57;12.63;;;11.80;52.30;;;;;;5053350;28;20453;-75
2022/03/22 00:45:25;;;;;;;16.37;13.13;;;11.90;52.30;;;;;;5038674;28;20465;-75
2022/03/22 00:47:52;;;;;;;22.40;13.90;;;12.00;52.20;;;;;;5055963;28;20445;-75
2022/03/22 00:50:21;;;;;;;16.93;14.30;;;12.10;52.10;;;;;;5053636;28;20679;-75
2022/03/22 00:52:47;;;;;;;17.70;13.73;;;11.90;52.20;;;;;;5053344;28;20474;-76
2022/03/22 00:55:13;;;;;;;18.33;13.27;;;11.90;52.20;;;;;;5037147;28;20458;-76
2022/03/22 00:57:41;;;;;;;17.60;13.30;;;11.80;52.40;;;;;;5038014;28;20441;-76
2022/03/22 01:00:10;;;;;;;18.57;11.93;;;11.80;52.50;;;;;;5051854;28;20484;-77
2022/03/22 01:02:42;;;;;;;19.47;13.57;;;11.80;52.60;;;;;;5058156;28;20437;-77
2022/03/22 01:05:17;;;;;;;15.87;12.40;;;11.70;52.60;;;;;;5054014;28;20537;-77
2022/03/22 01:07:45;;;;;;;18.17;13.00;;;11.80;52.40;;;;;;5051485;28;20445;-77
2022/03/22 01:10:12;;;;;;;18.40;12.87;;;11.70;52.60;;;;;;5053674;28;20524;-76
2022/03/22 01:12:40;;;;;;;16.83;12.70;;;11.70;52.50;;;;;;5051192;28;20441;-76
2022/03/22 01:15:13;;;;;;;17.50;12.50;;;11.60;52.50;;;;;;5039838;28;20461;-76
2022/03/22 01:17:38;;;;;;;17.60;12.90;;;11.60;52.60;;;;;;5058776;28;20429;-76
2022/03/22 01:20:06;;;;;;;17.60;13.43;;;11.60;52.60;;;;;;5053400;28;20434;-76
2022/03/22 01:22:32;;;;;;;15.93;12.67;;;11.50;52.70;;;;;;5043398;28;20190;-77
2022/03/22 01:24:58;;;;;;;19.70;14.10;;;11.50;52.60;;;;;;5057190;28;20466;-76
2022/03/22 01:27:24;;;;;;;17.13;12.80;;;11.50;52.60;;;;;;5053482;28;20443;-77
2022/03/22 01:29:50;;;;;;;19.83;14.57;;;11.50;52.60;;;;;;5043028;28;20436;-77
2022/03/22 01:32:15;;;;;;;16.87;12.20;;;11.50;52.70;;;;;;5057332;28;20648;-76
2022/03/22 01:34:44;;;;;;;17.27;13.10;;;11.40;52.60;;;;;;5057957;28;20218;-77
2022/03/22 01:37:11;;;;;;;18.20;12.40;;;11.40;52.70;;;;;;5056009;28;20809;-76
2022/03/22 01:39:37;;;;;;;19.50;13.00;;;11.50;52.50;;;;;;5056421;28;20466;-76
2022/03/22 01:42:03;;;;;;;17.43;13.10;;;11.20;52.90;;;;;;5054959;28;20453;-76
2022/03/22 01:44:29;;;;;;;18.53;14.50;;;11.00;52.90;;;;;;5042153;28;20461;-76
2022/03/22 01:47:01;;;;;;;18.93;13.07;;;11.00;53.30;;;;;;5042681;28;20820;-76
2022/03/22 01:49:27;;;;;;;16.57;13.03;;;11.00;53.30;;;;;;5057632;28;20187;-76
2022/03/22 01:51:55;;;;;;;15.80;13.00;;;11.00;53.50;;;;;;5059501;28;20810;-76
2022/03/22 01:54:20;;;;;;;21.73;13.50;;;11.00;53.50;;;;;;5057396;28;20468;-76
2022/03/22 01:56:46;;;;;;;17.70;13.13;;;11.00;53.30;;;;;;5056288;28;20430;-75
2022/03/22 01:59:12;;;;;;;17.50;13.60;;;11.10;53.30;;;;;;5057501;28;20241;-76
2022/03/22 02:07:09;;;;;;;17.80;13.90;;;11.00;53.20;;;;;;5055586;28;20526;-76
2022/03/22 02:09:34;;;;;;;15.07;12.43;;;11.10;53.10;;;;;;5054155;28;20528;-76
2022/03/22 02:12:00;;;;;;;21.73;13.67;;;11.00;53.20;;;;;;5059500;28;20498;-76
2022/03/22 02:14:26;;;;;;;15.50;12.80;;;10.90;53.40;;;;;;5042377;28;20929;-76
2022/03/22 02:16:52;;;;;;;22.40;13.73;;;11.00;53.30;;;;;;5055768;28;20302;-76
2022/03/22 02:19:17;;;;;;;19.00;12.90;;;11.00;53.40;;;;;;5057824;28;20562;-73
2022/03/22 02:21:44;;;;;;;17.00;13.50;;;10.90;53.50;;;;;;5054171;28;20179;-76
2022/03/22 02:24:10;;;;;;;17.93;13.50;;;11.00;53.50;;;;;;5054155;28;20227;-76
2022/03/22 02:26:38;;;;;;;19.27;14.23;;;10.80;53.70;;;;;;5055400;28;20438;-76
2022/03/22 02:29:05;;;;;;;17.00;12.60;;;10.90;53.50;;;;;;5056061;28;20445;-77
2022/03/22 02:31:31;;;;;;;17.00;13.03;;;10.90;53.20;;;;;;5043940;28;20460;-77
2022/03/22 02:33:57;;;;;;;18.67;13.93;;;10.90;53.20;;;;;;5057432;28;20616;-77
2022/03/22 02:36:23;;;;;;;19.17;13.60;;;10.70;53.40;;;;;;5057395;28;20448;-78
2022/03/22 02:38:51;;;;;;;17.13;12.53;;;10.50;53.80;;;;;;5055286;28;20441;-77
2022/03/22 02:41:22;;;;;;;17.87;13.53;;;10.40;53.90;;;;;;5055942;28;20441;-76
2022/03/22 02:43:48;;;;;;;16.90;12.30;;;10.30;54.10;;;;;;5056616;28;20516;-77
2022/03/22 02:46:14;;;;;;;18.33;12.00;;;10.30;54.30;;;;;;5055796;28;20817;-76
2022/03/22 02:48:41;;;;;;;18.87;14.03;;;10.30;54.00;;;;;;5055350;28;20537;-75
2022/03/22 02:51:07;;;;;;;18.00;13.60;;;10.30;53.90;;;;;;5055685;28;20499;-76
2022/03/22 02:53:33;;;;;;;16.67;13.13;;;10.10;54.30;;;;;;5057213;28;20501;-77
2022/03/22 02:55:59;;;;;;;15.80;12.07;;;10.00;54.40;;;;;;5038626;28;20442;-77
2022/03/22 02:58:24;;;;;;;18.77;13.67;;;10.20;54.20;;;;;;5055632;28;21663;-77
2022/03/22 03:00:50;;;;;;;17.90;13.57;;;10.10;53.70;;;;;;5056250;28;20520;-77
2022/03/22 03:03:22;;;;;;;17.23;13.20;;;10.10;54.00;;;;;;5036185;28;20270;-76
2022/03/22 03:05:49;;;;;;;17.40;13.07;;;10.10;53.80;;;;;;5057146;28;20316;-75
2022/03/22 03:08:15;;;;;;;17.20;13.07;;;10.10;53.90;;;;;;5056417;28;20446;-76
2022/03/22 03:10:42;;;;;;;22.27;13.20;;;10.00;54.20;;;;;;5057225;28;20473;-75
2022/03/22 03:13:08;;;;;;;21.43;14.40;;;10.00;54.40;;;;;;5054910;28;20809;-76
2022/03/22 03:15:34;;;;;;;16.07;12.10;;;9.80;55.50;;;;;;5054956;28;20462;-75
2022/03/22 03:18:00;;;;;;;16.70;13.00;;;9.80;55.30;;;;;;5058857;28;20444;-76
2022/03/22 03:20:26;;;;;;;16.77;13.23;;;9.70;55.60;;;;;;5037509;28;20204;-76
2022/03/22 03:22:52;;;;;;;16.30;13.13;;;9.80;55.60;;;;;;5054164;28;20680;-76
2022/03/22 03:25:18;;;;;;;17.00;12.47;;;9.90;55.70;;;;;;5055797;28;20554;-76
2022/03/22 03:27:44;;;;;;;18.53;13.93;;;9.70;55.90;;;;;;5052965;28;20184;-76
2022/03/22 03:30:10;;;;;;;17.80;12.43;;;9.80;56.00;;;;;;5055669;28;20176;-75
2022/03/22 03:32:36;;;;;;;17.33;12.70;;;9.80;56.00;;;;;;5054561;28;20433;-75
2022/03/22 03:35:03;;;;;;;14.63;12.33;;;9.80;56.00;;;;;;5043482;28;20269;-76
2022/03/22 03:37:31;;;;;;;17.37;13.83;;;9.90;55.90;;;;;;5055786;28;20438;-75
2022/03/22 03:39:57;;;;;;;15.00;12.03;;;9.90;55.90;;;;;;5054912;28;20446;-75
2022/03/22 03:42:23;;;;;;;21.37;14.30;;;9.80;55.90;;;;;;5051343;28;20441;-75
2022/03/22 03:47:34;;;;;;;18.07;13.27;;;9.70;56.30;;;;;;5054774;28;20218;-75
2022/03/22 03:50:02;;;;;;;22.40;13.17;;;9.60;56.40;;;;;;5030948;28;20449;-75
2022/03/22 03:52:33;;;;;;;19.90;15.50;;;9.40;57.30;;;;;;5053535;28;20444;-75
2022/03/22 03:55:00;;;;;;;22.43;14.30;;;9.50;57.40;;;;;;5037925;28;20465;-75
2022/03/22 03:57:27;;;;;;;21.10;14.10;;;9.50;57.10;;;;;;5053914;28;20968;-75
2022/03/22 03:59:54;;;;;;;20.90;12.83;;;9.50;56.90;;;;;;5052926;28;20935;-75
2022/03/22 04:02:21;;;;;;;21.17;13.40;;;9.30;57.50;;;;;;5039955;28;20465;-75
2022/03/22 04:04:53;;;;;;;17.13;12.37;;;9.40;57.40;;;;;;5054727;28;20502;-75
2022/03/22 04:07:26;;;;;;;18.93;14.17;;;9.40;58.10;;;;;;5052803;28;20472;-74
2022/03/22 04:09:56;;;;;;;21.03;13.43;;;9.20;57.90;;;;;;5051658;28;20433;-74
2022/03/22 04:12:22;;;;;;;19.17;13.93;;;9.20;57.90;;;;;;5053295;28;20532;-75
2022/03/22 04:14:51;;;;;;;18.70;13.33;;;9.20;58.00;;;;;;5054116;28;20479;-74
2022/03/22 04:17:18;;;;;;;18.73;12.93;;;9.30;58.20;;;;;;5053481;28;20481;-75
2022/03/22 04:19:45;;;;;;;20.10;13.40;;;9.40;58.30;;;;;;5056084;28;20439;-75
2022/03/22 04:22:10;;;;;;;16.13;13.40;;;9.20;58.00;;;;;;5054323;28;20842;-75
2022/03/22 04:24:36;;;;;;;20.10;13.93;;;9.10;58.40;;;;;;5056107;28;20480;-75
2022/03/22 04:32:42;;;;;;;17.53;13.30;;;9.20;57.80;;;;;;5057063;28;20499;-75
2022/03/22 04:35:08;;;;;;;18.83;14.30;;;9.20;57.90;;;;;;5053948;28;20460;-76
2022/03/22 04:37:34;;;;;;;22.43;14.40;;;9.10;58.10;;;;;;5053549;28;20449;-76
2022/03/22 04:40:00;;;;;;;17.33;13.77;;;9.10;58.00;;;;;;5056353;28;20460;-75
2022/03/22 04:42:26;;;;;;;19.27;13.37;;;8.90;58.10;;;;;;5055587;28;20202;-76
2022/03/22 04:44:51;;;;;;;20.83;13.77;;;9.00;58.00;;;;;;5057671;28;20472;-76
2022/03/22 04:47:17;;;;;;;20.17;14.10;;;9.00;58.20;;;;;;5037929;28;20544;-75
2022/03/22 04:49:42;;;;;;;19.20;14.00;;;9.00;58.30;;;;;;5054420;28;20209;-75
2022/03/22 04:57:36;;;;;;;15.30;12.90;;;9.10;59.00;;;;;;5055454;28;20455;-76
2022/03/22 05:00:04;;;;;;;17.20;13.40;;;8.90;58.90;;;;;;5044130;28;21127;-75
2022/03/22 05:02:29;;;;;;;20.17;14.17;;;9.00;59.80;;;;;;5056006;28;20611;-75
2022/03/22 05:04:55;;;;;;;21.43;13.77;;;9.00;59.90;;;;;;5057029;28;20473;-76
2022/03/22 05:07:20;;;;;;;21.67;13.43;;;9.00;60.40;;;;;;5056502;28;20238;-75
2022/03/22 05:09:46;;;;;;;21.77;15.20;;;9.00;60.60;;;;;;5057213;28;20204;-74
2022/03/22 05:12:13;;;;;;;22.60;14.80;;;8.90;61.40;;;;;;5058229;28;20207;-75
2022/03/22 05:14:42;;;;;;;17.90;13.00;;;8.90;61.80;;;;;;5053788;28;20661;-74
2022/03/22 05:17:11;;;;;;;20.03;13.63;;;8.90;61.80;;;;;;5054688;28;20442;-75
2022/03/22 05:19:37;;;;;;;21.23;14.13;;;8.90;62.00;;;;;;5060050;28;20544;-74
2022/03/22 05:22:04;;;;;;;19.57;14.57;;;8.90;61.80;;;;;;5056061;28;20475;-75
2022/03/22 05:24:30;;;;;;;22.80;13.57;;;8.80;62.00;;;;;;5055617;28;20477;-75
2022/03/22 05:26:55;;;;;;;18.77;14.13;;;8.70;63.10;;;;;;5059962;28;20890;-74
2022/03/22 05:29:21;;;;;;;19.20;13.83;;;8.80;61.80;;;;;;5055959;28;20183;-75
2022/03/22 05:31:47;;;;;;;18.50;13.87;;;8.80;62.00;;;;;;5040250;28;21120;-75
2022/03/22 05:34:13;;;;;;;23.40;13.93;;;8.70;61.50;;;;;;5055162;28;20461;-75
2022/03/22 05:36:39;;;;;;;18.23;12.30;;;8.60;61.90;;;;;;5057132;28;20184;-75
2022/03/22 05:39:04;;;;;;;19.83;12.37;;;8.40;62.90;;;;;;5057057;28;20180;-75
2022/03/22 05:41:30;;;;;;;21.73;14.40;;;8.60;62.50;;;;;;5058557;28;20438;-76
2022/03/22 05:43:56;;;;;;;17.67;13.50;;;8.60;62.10;;;;;;5053584;28;20218;-76
2022/03/22 05:46:22;;;;;;;22.50;14.10;;;8.60;62.20;;;;;;5055417;28;20476;-76
2022/03/22 05:48:48;;;;;;;19.10;14.30;;;8.60;62.20;;;;;;5050599;28;20954;-75
2022/03/22 05:51:16;;;;;;;21.27;14.60;;;8.40;62.20;;;;;;5055638;28;20292;-74
2022/03/22 05:53:43;;;;;;;19.90;14.33;;;8.50;62.60;;;;;;5054825;28;20514;-75
2022/03/22 05:56:09;;;;;;;17.07;12.97;;;8.40;62.80;;;;;;5057447;28;20536;-74
2022/03/22 05:58:37;;;;;;;20.60;14.87;;;8.40;62.60;;;;;;5057027;28;20560;-74
2022/03/22 06:01:03;;;;;;;19.87;14.70;;;8.40;62.80;;;;;;5056232;28;20198;-79
2022/03/22 06:03:29;;;;;;;19.80;13.33;;;8.40;62.50;;;;;;5054845;28;20470;-74
2022/03/22 06:05:55;;;;;;;18.93;13.90;;;8.20;63.30;;;;;;5042739;28;20611;-74
2022/03/22 06:08:21;;;;;;;22.47;13.43;;;8.20;63.10;;;;;;5053899;28;20437;-74
2022/03/22 06:10:47;;;;;;;18.23;12.73;;;8.30;62.90;;;;;;5057281;28;20175;-74
2022/03/22 06:13:12;;;;;;;24.27;15.30;;;8.30;63.40;;;;;;5055337;28;20179;-74
2022/03/22 06:15:41;;;;;;;19.70;13.80;;;8.30;63.40;;;;;;5053941;28;20457;-75
2022/03/22 06:18:10;;;;;;;22.53;15.23;;;8.30;63.50;;;;;;5048916;28;20215;-76
2022/03/22 06:20:43;;;;;;;23.60;15.37;;;8.30;64.40;;;;;;5054790;28;21013;-77
2022/03/22 06:23:14;;;;;;;20.03;14.27;;;8.10;64.10;;;;;;5056609;28;21265;-72
2022/03/22 06:25:40;;;;;;;21.63;13.20;;;8.20;64.50;;;;;;5054253;28;20984;-73
2022/03/22 06:28:09;;;;;;;20.53;14.50;;;8.20;64.60;;;;;;5050406;28;20457;-76
2022/03/22 06:30:36;;;;;;;17.20;14.07;;;8.20;64.70;;;;;;5060226;28;20483;-75
2022/03/22 06:33:12;;;;;;;18.43;14.00;;;8.20;64.80;;;;;;5060852;28;20465;-74
2022/03/22 06:35:39;;;;;;;24.33;15.33;;;8.10;65.10;;;;;;5057616;28;20573;-76
2022/03/22 06:38:05;;;;;;;18.30;13.53;;;8.20;65.60;;;;;;5043551;28;20429;-76
2022/03/22 06:40:34;;;;;;;17.97;14.03;;;8.30;64.80;;;;;;5043323;28;20649;-72
2022/03/22 06:43:03;;;;;;;18.80;14.73;;;8.10;65.40;;;;;;5061623;28;20479;-74
2022/03/22 06:45:29;;;;;;;24.00;14.67;;;8.20;65.40;;;;;;5056574;28;20866;-75
2022/03/22 06:47:55;;;;;;;22.20;14.80;;;8.20;64.50;;;;;;5059716;28;20449;-76
2022/03/22 06:50:21;;;;;;;20.00;14.40;;;8.30;64.30;;;;;;5056054;28;20693;-73
2022/03/22 06:52:47;;;;;;;21.43;16.33;;;8.20;64.40;;;;;;5054697;28;20176;-77
2022/03/22 06:55:16;;;;;;;18.30;14.33;;;8.20;64.80;;;;;;5057108;28;20519;-72
2022/03/22 06:57:42;;;;;;;24.77;14.30;;;8.20;64.70;;;;;;5054742;28;20917;-75
2022/03/22 07:00:11;;;;;;;24.00;14.17;;;8.30;64.40;;;;;;5054147;28;20461;-75
2022/03/22 07:02:39;;;;;;;23.33;14.90;;;8.30;64.10;;;;;;5036740;28;20806;-75
2022/03/22 07:05:06;;;;;;;18.10;14.17;;;8.30;64.80;;;;;;5057322;28;20469;-74
2022/03/22 07:07:31;;;;;;;19.07;14.13;;;8.40;64.40;;;;;;5054013;28;20424;-76
2022/03/22 07:09:57;;;;;;;21.20;15.27;;;8.20;64.20;;;;;;5054278;28;20933;-76
2022/03/22 07:12:23;;;;;;;21.87;15.30;;;8.20;63.90;;;;;;5054851;28;20183;-76
2022/03/22 07:14:48;;;;;;;28.43;15.17;;;8.30;64.10;;;;;;5056346;28;20213;-76
2022/03/22 07:17:14;;;;;;;19.87;14.10;;;8.50;63.80;;;;;;5057467;28;20180;-76
2022/03/22 07:19:39;;;;;;;18.47;14.50;;;8.40;63.40;;;;;;5056385;28;20296;-76
2022/03/22 07:22:06;;;;;;;18.40;14.80;;;8.50;63.60;;;;;;5055356;28;20210;-76
2022/03/22 07:24:32;;;;;;;21.23;15.63;;;8.60;63.30;;;;;;5054531;28;20569;-75
2022/03/22 07:26:58;;;;;;;20.97;15.60;;;8.70;63.90;;;;;;5034643;28;20524;-77
2022/03/22 07:29:24;;;;;;;22.80;14.90;;;8.70;63.60;;;;;;5050258;28;20506;-76
2022/03/22 07:31:50;;;;;;;20.03;15.33;;;8.80;63.60;;;;;;5050039;28;20991;-76
2022/03/22 07:34:17;;;;;;;22.03;16.40;;;8.80;63.70;;;;;;5055408;28;20203;-76
2022/03/22 07:36:44;;;;;;;25.13;16.33;;;8.90;63.00;;;;;;5053359;28;20236;-76
2022/03/22 07:39:11;;;;;;;20.73;14.63;;;8.80;62.70;;;;;;5054352;28;20485;-76
2022/03/22 07:41:38;;;;;;;20.80;16.10;;;8.90;62.60;;;;;;5038592;28;20487;-76
2022/03/22 07:44:07;;;;;;;24.27;14.70;;;8.90;63.30;;;;;;5048819;28;20475;-76
2022/03/22 07:46:33;;;;;;;21.90;15.57;;;9.00;62.10;;;;;;5051978;28;20958;-76
2022/03/22 07:52:58;;;;;;;26.50;17.47;;;9.00;61.90;;;;;;5054672;28;20515;-75
2022/03/22 07:54:30;;;;;;;22.13;15.87;;;9.10;61.70;;;;;;5055342;28;20464;-75
2022/03/22 07:56:56;;;;;;;19.80;15.40;;;9.30;61.40;;;;;;5049581;28;20790;-76
2022/03/22 07:59:24;;;;;;;19.10;15.20;;;9.30;61.50;;;;;;5054608;28;20182;-75
2022/03/22 08:01:50;;;;;;;21.50;15.33;;;9.30;61.70;;;;;;5051314;28;20180;-75
2022/03/22 08:04:16;;;;;;;21.40;17.00;;;9.30;61.40;;;;;;5049084;28;20566;-74
2022/03/22 08:06:42;;;;;;;20.63;15.97;;;9.30;61.60;;;;;;5052946;28;20549;-74
2022/03/22 08:09:07;;;;;;;26.97;16.50;;;9.30;61.70;;;;;;5048663;28;20183;-75
2022/03/22 08:11:33;;;;;;;18.03;14.83;;;9.30;62.10;;;;;;5052250;28;20190;-73
2022/03/22 08:13:59;;;;;;;21.37;15.30;;;9.30;61.90;;;;;;5047813;28;20236;-74
2022/03/22 08:16:26;;;;;;;19.67;15.70;;;9.20;62.30;;;;;;5053333;28;20186;-75
2022/03/22 08:18:52;;;;;;;19.93;15.40;;;9.50;61.60;;;;;;5051660;28;20487;-74
2022/03/22 08:21:18;;;;;;;16.80;14.10;;;9.60;61.60;;;;;;5051088;28;20477;-76
2022/03/22 08:23:44;;;;;;;23.70;16.00;;;9.60;61.80;;;;;;5055423;28;20544;-74
2022/03/22 08:26:09;;;;;;;22.30;14.13;;;9.70;61.30;;;;;;5040494;28;20228;-75
2022/03/22 08:28:35;;;;;;;21.63;14.80;;;9.60;61.10;;;;;;5052487;28;20171;-74
2022/03/22 08:31:01;;;;;;;19.37;15.10;;;9.60;62.00;;;;;;5055060;28;20675;-76
2022/03/22 08:33:27;;;;;;;22.50;15.37;;;9.30;61.40;;;;;;5036177;28;20438;-76
2022/03/22 08:35:52;;;;;;;21.00;15.07;;;9.20;63.20;;;;;;5057849;28;20746;-76
2022/03/22 08:38:20;;;;;;;17.97;14.93;;;9.60;61.90;;;;;;5038838;28;20186;-76
2022/03/22 08:40:50;;;;;;;19.80;14.50;;;9.80;60.80;;;;;;5053140;28;20219;-77
2022/03/22 08:43:16;;;;;;;21.90;14.47;;;9.80;60.20;;;;;;5056532;28;20457;-76
2022/03/22 08:45:41;;;;;;;19.33;14.50;;;9.80;60.80;;;;;;5052007;28;20448;-76
2022/03/22 08:48:11;;;;;;;20.77;15.23;;;9.90;60.50;;;;;;5055442;28;20776;-76
2022/03/22 08:50:42;;;;;;;18.53;14.50;;;9.90;60.20;;;;;;5038545;28;20191;-76
2022/03/22 08:53:08;;;;;;;18.40;14.50;;;10.00;59.40;;;;;;5054212;28;20451;-76
2022/03/22 08:55:35;;;;;;;23.90;14.77;;;10.30;58.90;;;;;;5057386;28;20437;-75
2022/03/22 08:58:05;;;;;;;22.23;15.10;;;10.40;58.30;;;;;;5040030;28;20522;-76
2022/03/22 09:00:33;;;;;;;22.27;15.77;;;10.40;58.30;;;;;;5056521;28;20436;-74
2022/03/22 09:02:59;;;;;;;29.37;16.00;;;10.50;58.40;;;;;;5059860;28;20528;-73
2022/03/22 09:08:09;;;;;;;19.90;14.10;;;10.70;58.30;;;;;;5057219;28;20437;-73
2022/03/22 09:10:36;;;;;;;20.37;13.83;;;10.60;58.90;;;;;;5058205;28;20433;-77
2022/03/22 09:13:03;;;;;;;18.23;13.70;;;10.70;59.10;;;;;;5057076;28;20186;-75
2022/03/22 09:15:30;;;;;;;23.67;14.50;;;10.60;58.80;;;;;;5039221;28;20951;-74
2022/03/22 09:17:56;;;;;;;23.93;15.17;;;10.80;58.80;;;;;;5041270;28;20465;-73
2022/03/22 09:20:23;;;;;;;22.07;15.10;;;10.90;58.20;;;;;;5058431;28;20524;-73
2022/03/22 09:22:51;;;;;;;18.73;14.37;;;11.00;57.80;;;;;;5058258;28;20426;-73
2022/03/22 09:25:21;;;;;;;15.60;12.50;;;11.10;57.70;;;;;;5041381;28;20536;-73
2022/03/22 09:27:47;;;;;;;20.33;12.97;;;11.10;57.60;;;;;;5057600;28;20479;-74
2022/03/22 09:30:13;;;;;;;18.30;13.40;;;11.10;58.00;;;;;;5054836;28;20827;-73
2022/03/22 09:32:40;;;;;;;25.70;12.87;;;11.00;58.00;;;;;;5056764;28;20440;-74
2022/03/22 09:35:07;;;;;;;17.53;14.17;;;11.00;58.30;;;;;;5053878;28;20476;-73
2022/03/22 09:37:37;;;;;;;15.37;12.27;;;11.10;58.70;;;;;;5058160;28;20467;-74
2022/03/22 09:40:04;;;;;;;18.67;12.67;;;11.00;58.00;;;;;;5061820;28;20433;-73
2022/03/22 09:42:31;;;;;;;18.70;12.47;;;10.90;58.50;;;;;;5056338;28;20437;-74
2022/03/22 09:45:01;;;;;;;17.87;12.17;;;11.00;58.50;;;;;;5060706;28;21308;-74
2022/03/22 09:47:28;;;;;;;22.37;14.50;;;11.10;58.30;;;;;;5057159;28;20805;-74
2022/03/22 09:49:56;;;;;;;20.30;15.17;;;11.20;58.10;;;;;;5057262;28;20792;-74
2022/03/22 09:52:23;;;;;;;26.80;16.40;;;11.30;57.70;;;;;;5055592;28;20846;-73
2022/03/22 09:54:49;;;;;;;29.70;20.93;;;11.50;57.60;;;;;;5054897;28;20533;-73
2022/03/22 09:57:16;;;;;;;19.70;13.93;;;11.70;57.60;;;;;;5058960;28;20946;-72
2022/03/22 09:59:42;;;;;;;22.10;16.10;;;11.60;57.30;;;;;;5058472;28;20422;-74
2022/03/22 10:02:09;;;;;;;19.03;13.90;;;11.70;57.90;;;;;;5059413;28;20440;-73
2022/03/22 10:04:44;;;;;;;21.40;13.60;;;11.80;57.30;;;;;;5056452;28;20484;-74
2022/03/22 10:07:21;;;;;;;19.10;13.27;;;11.90;57.40;;;;;;5038003;28;20971;-73
2022/03/22 10:09:55;;;;;;;18.87;13.00;;;12.10;56.70;;;;;;5056680;28;20560;-73
2022/03/22 10:12:27;;;;;;;19.17;14.00;;;11.90;56.50;;;;;;5052840;28;20504;-74
2022/03/22 10:14:53;;;;;;;16.30;12.30;;;12.00;57.10;;;;;;5056173;28;21128;-73
2022/03/22 10:17:19;;;;;;;19.40;13.83;;;12.00;57.10;;;;;;5056550;28;20430;-74
2022/03/22 10:19:50;;;;;;;16.50;13.63;;;12.00;57.40;;;;;;5055538;28;20190;-73
2022/03/22 10:22:21;;;;;;;17.63;12.53;;;12.20;57.60;;;;;;5057732;28;20437;-73
2022/03/22 10:24:49;;;;;;;15.57;12.50;;;12.30;57.20;;;;;;5038184;28;20469;-72
2022/03/22 10:27:27;;;;;;;16.13;12.30;;;12.20;57.20;;;;;;5057219;28;20517;-74
2022/03/22 10:29:54;;;;;;;15.77;12.33;;;12.20;57.70;;;;;;5060172;28;20785;-73
2022/03/22 10:32:37;;;;;;;17.30;12.63;;;12.40;57.30;;;;;;5057305;28;20421;-74
2022/03/22 10:35:22;;;;;;;24.50;17.37;;;12.50;56.90;;;;;;5056321;28;20503;-73
2022/03/22 10:37:54;;;;;;;24.03;13.63;;;12.70;57.20;;;;;;5060143;28;20422;-72
2022/03/22 10:40:42;;;;;;;19.00;13.23;;;12.70;56.50;;;;;;5055547;28;20524;-73
2022/03/22 10:43:16;;;;;;;16.57;13.03;;;12.80;56.20;;;;;;5060420;28;20436;-73
2022/03/22 10:45:42;;;;;;;15.10;12.10;;;12.80;56.30;;;;;;5056228;28;20520;-73
2022/03/22 10:48:08;;;;;;;17.30;12.93;;;12.90;57.10;;;;;;5039815;28;20506;-73
2022/03/22 10:50:38;;;;;;;20.37;13.30;;;13.10;56.80;;;;;;5055387;28;20873;-73
2022/03/22 10:53:04;;;;;;;17.40;13.80;;;13.20;55.10;;;;;;5038386;28;20180;-74
2022/03/22 10:55:30;;;;;;;18.90;13.30;;;13.30;54.50;;;;;;5060134;28;20445;-74
2022/03/22 10:58:01;;;;;;;18.80;13.20;;;13.50;53.90;;;;;;5055832;28;20795;-74
2022/03/22 11:00:27;;;;;;;17.50;13.40;;;13.30;54.00;;;;;;5050589;28;20488;-72
2022/03/22 11:02:55;;;;;;;17.80;11.60;;;13.50;54.70;;;;;;5053459;28;20422;-73
2022/03/22 11:05:23;;;;;;;18.47;13.17;;;13.50;55.50;;;;;;5053433;28;20442;-73
2022/03/22 11:07:51;;;;;;;15.27;12.43;;;13.50;54.80;;;;;;5058292;28;20417;-72
2022/03/22 11:10:19;;;;;;;17.20;13.77;;;13.40;54.50;;;;;;5051265;28;21124;-72
2022/03/22 11:12:46;;;;;;;17.43;13.00;;;13.50;54.30;;;;;;5055083;28;20459;-73
2022/03/22 11:15:14;;;;;;;18.50;13.10;;;13.50;54.20;;;;;;5052659;28;20495;-72
2022/03/22 11:17:41;;;;;;;16.30;12.30;;;13.60;54.00;;;;;;5052954;28;20450;-72
2022/03/22 11:20:10;;;;;;;18.60;13.10;;;13.80;53.80;;;;;;5042052;28;20433;-73
2022/03/22 11:22:36;;;;;;;21.90;13.70;;;13.80;53.70;;;;;;5055951;28;21157;-72
2022/03/22 11:25:30;;;;;;;15.40;12.77;;;14.00;53.10;;;;;;5042057;28;20473;-72
2022/03/22 11:27:59;;;;;;;16.97;13.10;;;14.00;53.60;;;;;;5026046;28;20429;-74
2022/03/22 11:30:27;;;;;;;16.73;13.33;;;14.10;53.50;;;;;;5052672;28;20425;-73
2022/03/22 11:36:17;;;;;;;19.53;13.17;;;14.30;52.60;;;;;;5050102;28;20491;-72
2022/03/22 11:38:44;;;;;;;17.47;14.10;;;14.30;51.10;;;;;;5054548;28;20425;-72
2022/03/22 11:44:35;;;;;;;20.77;15.40;;;14.30;50.90;;;;;;5057298;28;20480;-72
2022/03/22 11:47:42;;;;;;;23.53;16.23;;;14.30;50.80;;;;;;5059274;28;20805;-72
2022/03/22 11:50:13;;;;;;;19.20;14.90;;;14.60;50.60;;;;;;5031882;28;20431;-73
2022/03/22 11:52:40;;;;;;;20.70;14.33;;;14.70;50.30;;;;;;5055897;28;20518;-73
2022/03/22 11:55:06;;;;;;;19.67;15.00;;;14.90;51.40;;;;;;5021185;28;20528;-75
2022/03/22 11:57:51;;;;;;;17.27;13.43;;;15.10;50.00;;;;;;5044363;28;20425;-73
2022/03/22 12:00:20;;;;;;;17.40;13.40;;;15.20;49.30;;;;;;5056670;28;20427;-73
2022/03/22 12:02:51;;;;;;;23.97;15.77;;;15.40;50.10;;;;;;5058629;28;20425;-73
2022/03/22 12:05:18;;;;;;;23.27;16.53;;;15.80;49.00;;;;;;5038967;28;20476;-74
2022/03/22 12:07:45;;;;;;;21.30;17.10;;;16.10;48.80;;;;;;5056508;28;20460;-73
2022/03/22 12:10:12;;;;;;;19.37;13.60;;;16.70;48.70;;;;;;5053270;28;20930;-74
2022/03/22 12:12:40;;;;;;;20.17;15.20;;;17.40;47.70;;;;;;5058702;28;20439;-73
2022/03/22 12:15:09;;;;;;;18.00;14.77;;;18.00;46.40;;;;;;5055384;28;20506;-73
2022/03/22 12:17:36;;;;;;;18.67;15.90;;;18.90;45.10;;;;;;5056815;28;20437;-73
2022/03/22 12:20:08;;;;;;;17.43;15.50;;;19.60;43.90;;;;;;5055958;28;20429;-74
2022/03/22 12:22:58;;;;;;;19.33;15.70;;;20.30;42.70;;;;;;5056005;28;20425;-74
2022/03/22 12:25:29;;;;;;;18.60;14.17;;;20.50;41.20;;;;;;5059224;28;20453;-72
2022/03/22 12:27:56;;;;;;;16.13;13.93;;;20.70;41.60;;;;;;5054618;28;20849;-72
2022/03/22 12:30:24;;;;;;;20.80;14.60;;;20.90;40.50;;;;;;5055039;28;20856;-72
2022/03/22 12:32:51;;;;;;;23.60;14.90;;;21.40;40.80;;;;;;5055752;28;20484;-72
2022/03/22 12:35:17;;;;;;;17.83;14.37;;;21.70;40.70;;;;;;5054972;28;20552;-72
2022/03/22 12:37:42;;;;;;;17.10;15.30;;;22.80;39.60;;;;;;5055716;28;20501;-72
2022/03/22 12:40:09;;;;;;;18.90;15.60;;;23.30;39.10;;;;;;5038374;28;20183;-72
2022/03/22 12:42:35;;;;;;;18.37;16.40;;;24.40;39.20;;;;;;5057824;28;20179;-73
2022/03/22 12:45:01;;;;;;;18.17;14.90;;;24.60;37.40;;;;;;5036910;28;20478;-73
2022/03/22 12:47:27;;;;;;;17.77;14.20;;;25.10;37.40;;;;;;5055107;28;20808;-72
2022/03/22 12:49:52;;;;;;;19.07;14.20;;;24.50;36.10;;;;;;5054312;28;20183;-72
2022/03/22 12:52:18;;;;;;;15.40;13.20;;;25.40;37.50;;;;;;5056867;28;20430;-73
2022/03/22 12:54:44;;;;;;;16.40;14.63;;;25.40;35.20;;;;;;5036430;28;20838;-72
2022/03/22 12:57:16;;;;;;;19.20;13.10;;;25.10;35.60;;;;;;5054862;28;20225;-72
2022/03/22 12:59:42;;;;;;;17.40;13.37;;;25.50;33.40;;;;;;5037247;28;20437;-72
2022/03/22 13:02:09;;;;;;;14.03;12.33;;;25.60;33.60;;;;;;5057430;28;20462;-73
2022/03/22 13:04:46;;;;;;;14.70;12.97;;;25.90;34.20;;;;;;5041190;28;20465;-72